Time;durP1;ratioP1;P1;durP2;ratioP2;P2;SDS_P1;SDS_P2;PMS_P1;PMS_P2;Temp;Humidity;BMP_temperature;BMP_pressure;BME280_temperature;BME280_humidity;BME280_pressure;Samples;Min_cycle;Max_cycle;Signal;HPM_P1;HPM_P2
2021/05/03 00:00:18;;;;;;;12.40;8.73;;;13.50;94.70;;;;;;6245730;22;20506;-91
2021/05/03 00:02:43;;;;;;;13.27;9.18;;;13.60;94.70;;;;;;6247251;22;20488;-90
2021/05/03 00:05:20;;;;;;;12.73;8.80;;;13.50;94.80;;;;;;6246192;22;20087;-90
2021/05/03 00:07:46;;;;;;;10.15;7.93;;;13.50;94.80;;;;;;6246405;23;20008;-91
2021/05/03 00:10:12;;;;;;;12.00;8.98;;;13.50;94.80;;;;;;6245860;22;20012;-91
2021/05/03 00:12:38;;;;;;;13.77;8.77;;;13.40;94.90;;;;;;6245856;22;20010;-90
2021/05/03 00:15:04;;;;;;;15.05;8.73;;;13.40;94.80;;;;;;6245871;23;20004;-91
2021/05/03 00:17:30;;;;;;;14.13;8.43;;;13.40;94.80;;;;;;6247218;22;20075;-91
2021/05/03 00:19:55;;;;;;;12.93;8.45;;;13.40;94.90;;;;;;6245920;22;20039;-90
2021/05/03 00:22:21;;;;;;;15.07;9.20;;;13.40;94.90;;;;;;6245789;23;20423;-90
2021/05/03 00:24:47;;;;;;;11.80;8.02;;;13.30;94.90;;;;;;6245759;22;20004;-90
2021/05/03 00:27:12;;;;;;;12.82;8.80;;;13.30;94.90;;;;;;6245734;23;20054;-90
2021/05/03 00:29:38;;;;;;;10.75;8.32;;;13.30;95.00;;;;;;6245619;22;20003;-91
2021/05/03 00:32:04;;;;;;;10.20;8.23;;;13.30;95.00;;;;;;6245350;22;20008;-90
2021/05/03 00:34:29;;;;;;;12.85;9.10;;;13.30;95.10;;;;;;6245675;23;20035;-91
2021/05/03 00:36:55;;;;;;;13.13;9.38;;;13.20;95.10;;;;;;6245670;23;20011;-90
2021/05/03 00:39:21;;;;;;;11.63;9.05;;;13.20;95.10;;;;;;6247113;23;20008;-90
2021/05/03 00:41:46;;;;;;;11.23;8.48;;;13.20;95.20;;;;;;6245551;23;20134;-90
2021/05/03 00:44:12;;;;;;;11.93;8.48;;;13.20;95.20;;;;;;6245664;22;20008;-90
2021/05/03 00:46:39;;;;;;;16.58;8.65;;;13.20;95.20;;;;;;6245809;23;20062;-90
2021/05/03 00:49:06;;;;;;;14.48;8.55;;;13.20;95.20;;;;;;6247850;22;20008;-90
2021/05/03 00:51:32;;;;;;;20.40;9.38;;;13.20;95.30;;;;;;6247225;23;20011;-90
2021/05/03 00:53:58;;;;;;;13.27;9.65;;;13.20;95.40;;;;;;6247290;22;20028;-90
2021/05/03 00:56:23;;;;;;;10.90;9.15;;;13.20;95.40;;;;;;6247772;22;20004;-90
2021/05/03 00:58:49;;;;;;;9.50;8.18;;;13.20;95.40;;;;;;6247439;22;20012;-92
2021/05/03 01:01:15;;;;;;;13.98;9.60;;;13.10;95.50;;;;;;6248251;22;20000;-90
2021/05/03 01:03:41;;;;;;;19.77;11.75;;;13.20;95.50;;;;;;6247498;22;20434;-90
2021/05/03 01:06:06;;;;;;;15.45;10.52;;;13.10;95.60;;;;;;6222439;23;20004;-90
2021/05/03 01:08:32;;;;;;;12.85;9.48;;;13.20;95.60;;;;;;6249032;22;20407;-91
2021/05/03 01:10:58;;;;;;;15.65;10.25;;;13.20;95.60;;;;;;6247489;22;20000;-91
2021/05/03 01:13:23;;;;;;;12.45;9.10;;;13.20;95.60;;;;;;6248834;22;20003;-90
2021/05/03 01:15:49;;;;;;;13.77;9.88;;;13.20;95.70;;;;;;6247260;23;20451;-90
2021/05/03 01:18:15;;;;;;;12.60;9.63;;;13.20;95.70;;;;;;6247576;22;20099;-90
2021/05/03 01:20:41;;;;;;;11.75;9.40;;;13.20;95.70;;;;;;6247119;22;20495;-90
2021/05/03 01:23:07;;;;;;;13.63;9.15;;;13.20;95.70;;;;;;6222122;23;20004;-90
2021/05/03 01:25:37;;;;;;;17.13;11.13;;;13.20;95.70;;;;;;6247099;22;20004;-90
2021/05/03 01:28:04;;;;;;;17.77;9.70;;;13.20;95.70;;;;;;6247274;22;20012;-91
2021/05/03 01:30:31;;;;;;;13.77;9.93;;;13.20;95.80;;;;;;6247251;23;20007;-91
2021/05/03 01:32:58;;;;;;;15.68;9.70;;;13.20;95.80;;;;;;6248693;22;20007;-90
2021/05/03 01:35:24;;;;;;;19.25;9.32;;;13.30;95.80;;;;;;6246893;22;20001;-91
2021/05/03 01:37:54;;;;;;;15.13;10.65;;;13.20;95.80;;;;;;6248416;22;20000;-90
2021/05/03 01:40:22;;;;;;;19.80;10.65;;;13.30;95.90;;;;;;6247348;23;20047;-91
2021/05/03 01:42:49;;;;;;;12.15;9.38;;;13.30;96.00;;;;;;6247144;22;20079;-91
2021/05/03 01:45:22;;;;;;;16.80;10.32;;;13.30;95.90;;;;;;6248687;22;19996;-90
2021/05/03 01:47:49;;;;;;;16.02;10.55;;;13.30;95.90;;;;;;6247322;23;20035;-90
2021/05/03 01:50:15;;;;;;;13.50;10.02;;;13.30;96.00;;;;;;6222077;23;20004;-91
2021/05/03 01:52:41;;;;;;;12.48;10.23;;;13.30;95.90;;;;;;6246849;22;20466;-91
2021/05/03 01:55:07;;;;;;;17.65;10.73;;;13.30;95.90;;;;;;6247065;23;20008;-90
2021/05/03 01:57:33;;;;;;;15.10;9.95;;;13.20;95.80;;;;;;6247773;22;20395;-91
2021/05/03 01:59:59;;;;;;;17.10;11.30;;;13.30;95.90;;;;;;6247186;22;20007;-90
2021/05/03 02:02:25;;;;;;;17.15;11.75;;;13.20;96.00;;;;;;6246955;23;20007;-91
2021/05/03 02:04:50;;;;;;;21.88;11.73;;;13.20;95.90;;;;;;6248555;23;20000;-90
2021/05/03 02:07:17;;;;;;;12.52;9.63;;;13.20;95.90;;;;;;6246597;22;20004;-91
2021/05/03 02:09:46;;;;;;;11.50;9.32;;;13.10;95.80;;;;;;6247023;22;20079;-90
2021/05/03 02:12:12;;;;;;;14.20;10.23;;;13.10;95.80;;;;;;6247027;23;20111;-90
2021/05/03 02:14:40;;;;;;;19.48;10.70;;;13.10;95.90;;;;;;6246920;23;20004;-90
2021/05/03 02:17:06;;;;;;;15.55;9.23;;;13.10;96.00;;;;;;6248090;22;20145;-91
2021/05/03 02:19:32;;;;;;;23.02;10.95;;;13.00;96.00;;;;;;6248352;22;20008;-90
2021/05/03 02:21:57;;;;;;;12.60;8.93;;;13.00;96.00;;;;;;6248270;22;19997;-90
2021/05/03 02:24:23;;;;;;;18.60;10.13;;;13.00;96.10;;;;;;6246844;23;20502;-90
2021/05/03 02:26:48;;;;;;;14.10;10.15;;;13.00;96.10;;;;;;6246411;23;20078;-90
2021/05/03 02:29:14;;;;;;;11.50;9.32;;;13.00;96.20;;;;;;6248238;23;20064;-90
2021/05/03 02:31:40;;;;;;;16.23;10.98;;;13.00;96.20;;;;;;6246559;23;20111;-91
2021/05/03 02:34:06;;;;;;;17.13;11.82;;;13.00;96.30;;;;;;6248171;23;20004;-90
2021/05/03 02:36:32;;;;;;;15.55;9.77;;;13.00;96.30;;;;;;6246425;22;20053;-91
2021/05/03 02:38:58;;;;;;;15.07;10.27;;;13.00;96.30;;;;;;6246540;22;20008;-90
2021/05/03 02:41:23;;;;;;;12.73;10.48;;;13.00;96.30;;;;;;6248325;22;20062;-90
2021/05/03 02:43:49;;;;;;;17.55;11.90;;;13.00;96.60;;;;;;6246316;22;20010;-90
2021/05/03 02:46:15;;;;;;;16.30;11.35;;;13.00;96.50;;;;;;6246490;22;20003;-90
2021/05/03 02:48:41;;;;;;;16.75;11.88;;;13.00;96.60;;;;;;6246398;22;20004;-90
2021/05/03 02:51:06;;;;;;;17.98;11.05;;;13.00;96.50;;;;;;6246520;23;20004;-89
2021/05/03 02:53:32;;;;;;;18.20;11.70;;;13.00;96.60;;;;;;6246136;22;20020;-90
2021/05/03 02:55:58;;;;;;;20.30;11.50;;;13.00;96.60;;;;;;6246259;23;20004;-90
2021/05/03 02:58:24;;;;;;;17.23;12.75;;;13.00;96.70;;;;;;6247565;22;20011;-90
2021/05/03 03:00:49;;;;;;;16.58;11.05;;;13.00;96.90;;;;;;6246434;22;20324;-90
2021/05/03 03:03:15;;;;;;;14.88;12.10;;;13.00;96.90;;;;;;6246617;23;20075;-91
2021/05/03 03:05:41;;;;;;;15.77;9.90;;;13.10;97.10;;;;;;6246463;22;20001;-90
2021/05/03 03:08:06;;;;;;;15.57;12.00;;;13.10;96.90;;;;;;6246414;22;20102;-90
2021/05/03 03:10:32;;;;;;;26.05;13.38;;;13.10;97.00;;;;;;6245922;22;20071;-91
2021/05/03 03:13:01;;;;;;;18.27;13.35;;;13.20;97.20;;;;;;6246634;23;20079;-90
2021/05/03 03:15:30;;;;;;;20.52;13.73;;;13.30;97.20;;;;;;6246103;23;20075;-90
2021/05/03 03:17:56;;;;;;;21.23;14.25;;;13.30;97.30;;;;;;6247465;22;20415;-90
2021/05/03 03:20:21;;;;;;;18.00;12.15;;;13.40;97.40;;;;;;6246214;22;20011;-90
2021/05/03 03:22:47;;;;;;;24.05;13.25;;;13.40;97.40;;;;;;6246252;22;20001;-90
2021/05/03 03:25:14;;;;;;;19.35;13.25;;;13.50;97.40;;;;;;6248045;22;20050;-90
2021/05/03 03:27:40;;;;;;;12.68;10.63;;;13.50;97.40;;;;;;6245636;23;20004;-90
2021/05/03 03:30:08;;;;;;;12.90;10.30;;;13.60;97.20;;;;;;6245909;23;20011;-90
2021/05/03 03:32:34;;;;;;;13.43;10.30;;;13.60;97.30;;;;;;6246331;23;20012;-91
2021/05/03 03:35:00;;;;;;;14.70;10.07;;;13.70;97.10;;;;;;6248250;22;19996;-91
2021/05/03 03:37:26;;;;;;;15.77;10.88;;;13.70;97.00;;;;;;6245964;22;20015;-90
2021/05/03 03:39:52;;;;;;;14.93;10.25;;;13.80;97.00;;;;;;6245870;22;20095;-90
2021/05/03 03:42:18;;;;;;;18.25;10.85;;;13.80;97.10;;;;;;6247547;23;20035;-91
2021/05/03 03:44:43;;;;;;;14.27;10.23;;;13.90;97.10;;;;;;6247552;23;20320;-90
2021/05/03 03:47:09;;;;;;;14.13;10.25;;;13.90;97.10;;;;;;6246017;23;20096;-90
2021/05/03 03:49:35;;;;;;;12.35;10.60;;;14.00;97.10;;;;;;6246491;23;20004;-91
2021/05/03 03:52:00;;;;;;;13.82;10.48;;;14.00;97.10;;;;;;6245606;23;20078;-92
2021/05/03 03:54:26;;;;;;;16.23;11.25;;;14.10;97.20;;;;;;6246823;23;20012;-91
2021/05/03 03:56:52;;;;;;;16.08;10.88;;;14.20;97.20;;;;;;6247287;22;20000;-91
2021/05/03 03:59:18;;;;;;;14.63;9.82;;;14.30;97.20;;;;;;6246017;22;20009;-90
2021/05/03 04:01:45;;;;;;;11.90;9.35;;;14.30;97.10;;;;;;6220392;23;20005;-91
2021/05/03 04:04:19;;;;;;;11.85;10.13;;;14.40;97.20;;;;;;6245710;22;20051;-91
2021/05/03 04:06:52;;;;;;;9.18;8.18;;;14.60;97.20;;;;;;6245483;23;20010;-91
2021/05/03 04:27:57;;;;;;;11.82;8.02;;;15.70;94.80;;;;;;6249525;23;20382;-91
2021/05/03 04:30:22;;;;;;;8.40;6.80;;;15.80;94.10;;;;;;6222517;23;20036;-90
2021/05/03 04:32:48;;;;;;;8.02;7.10;;;15.90;94.00;;;;;;6248267;23;20007;-90
2021/05/03 04:35:14;;;;;;;7.25;5.53;;;16.10;93.20;;;;;;6247905;22;20053;-91
2021/05/03 04:37:39;;;;;;;9.73;7.03;;;16.20;93.10;;;;;;6247825;22;20462;-91
2021/05/03 04:40:06;;;;;;;10.70;6.05;;;16.20;91.40;;;;;;6248341;22;20086;-91
2021/05/03 04:42:31;;;;;;;9.45;5.43;;;16.30;91.00;;;;;;6249375;22;20427;-92
2021/05/03 04:44:57;;;;;;;8.50;6.15;;;16.30;91.30;;;;;;6247793;23;20078;-91
2021/05/03 04:47:23;;;;;;;9.65;6.18;;;16.40;90.90;;;;;;6247965;23;20004;-90
2021/05/03 04:49:49;;;;;;;8.32;5.70;;;16.50;90.20;;;;;;6250458;23;20314;-90
2021/05/03 04:52:14;;;;;;;6.30;5.47;;;16.50;89.90;;;;;;6273299;23;20008;-89
2021/05/03 04:54:40;;;;;;;7.72;5.55;;;16.50;88.70;;;;;;6275399;22;20067;-90
2021/05/03 04:57:06;;;;;;;6.35;4.50;;;16.50;88.00;;;;;;6275975;22;19988;-90
2021/05/03 04:59:32;;;;;;;7.05;5.20;;;16.50;85.20;;;;;;6274954;22;20027;-90
2021/05/03 05:01:58;;;;;;;5.45;4.40;;;16.60;84.80;;;;;;6274791;22;20004;-90
2021/05/03 05:04:24;;;;;;;6.53;4.88;;;16.60;83.10;;;;;;6253329;23;20311;-93
2021/05/03 05:06:51;;;;;;;6.65;4.35;;;16.60;84.10;;;;;;6247844;23;20004;-91
2021/05/03 05:09:16;;;;;;;5.65;3.90;;;16.70;83.60;;;;;;6247649;23;20010;-90
2021/05/03 05:11:42;;;;;;;7.75;4.57;;;16.80;84.10;;;;;;6247530;23;20027;-92
2021/05/03 05:14:08;;;;;;;6.15;4.97;;;16.80;82.80;;;;;;6247657;22;20001;-90
2021/05/03 05:16:34;;;;;;;5.53;4.30;;;16.90;81.50;;;;;;6247575;22;20000;-91
2021/05/03 05:19:00;;;;;;;5.65;5.07;;;16.90;81.20;;;;;;6248958;22;19996;-90
2021/05/03 05:21:26;;;;;;;5.85;4.68;;;17.00;80.50;;;;;;6246914;23;20082;-92
2021/05/03 05:23:54;;;;;;;4.68;4.00;;;17.00;79.60;;;;;;6248409;22;20000;-90
2021/05/03 05:26:20;;;;;;;7.70;4.55;;;17.00;79.30;;;;;;6248172;22;20008;-89
2021/05/03 05:28:45;;;;;;;6.07;4.18;;;17.00;79.30;;;;;;6222937;23;20508;-90
2021/05/03 05:31:11;;;;;;;6.13;4.32;;;17.00;79.20;;;;;;6248407;23;20003;-90
2021/05/03 05:33:37;;;;;;;6.68;4.30;;;17.10;79.00;;;;;;6245026;23;20000;-91
2021/05/03 05:36:03;;;;;;;7.43;3.83;;;17.10;78.60;;;;;;6244440;22;20083;-89
2021/05/03 05:38:29;;;;;;;4.65;4.13;;;17.00;78.60;;;;;;6245875;22;19996;-90
2021/05/03 05:40:54;;;;;;;4.93;3.95;;;17.10;78.60;;;;;;6246656;23;20107;-90
2021/05/03 05:43:20;;;;;;;4.70;3.80;;;17.00;76.90;;;;;;6244273;23;20099;-90
2021/05/03 05:45:46;;;;;;;5.22;4.03;;;17.00;77.10;;;;;;6247033;22;19992;-90
2021/05/03 05:48:11;;;;;;;4.10;3.67;;;17.00;77.20;;;;;;6244704;23;20016;-89
2021/05/03 05:50:37;;;;;;;4.05;3.65;;;17.00;77.20;;;;;;6244308;22;20007;-91
2021/05/03 05:53:03;;;;;;;4.75;3.50;;;16.90;77.40;;;;;;6244253;22;20406;-90
2021/05/03 05:55:29;;;;;;;4.15;3.22;;;16.90;77.30;;;;;;6246377;23;20321;-91
2021/05/03 05:57:55;;;;;;;4.07;3.40;;;16.90;77.10;;;;;;6247206;23;20043;-91
2021/05/03 06:00:21;;;;;;;4.35;3.65;;;16.80;76.20;;;;;;6248153;23;20004;-89
2021/05/03 06:02:46;;;;;;;5.25;3.90;;;16.80;75.60;;;;;;6247153;22;20001;-90
2021/05/03 06:05:14;;;;;;;3.65;3.25;;;16.80;75.70;;;;;;6246776;22;20091;-90
2021/05/03 06:07:39;;;;;;;5.22;3.63;;;16.70;75.50;;;;;;6246858;22;20006;-91
2021/05/03 06:10:07;;;;;;;5.68;4.15;;;16.60;74.90;;;;;;6246842;23;20062;-90
2021/05/03 06:12:32;;;;;;;8.60;4.45;;;16.50;74.30;;;;;;6248398;22;20003;-90
2021/05/03 06:14:58;;;;;;;5.50;4.82;;;16.40;74.90;;;;;;6246550;23;19996;-90
2021/05/03 06:17:24;;;;;;;6.07;4.45;;;16.40;75.30;;;;;;6246392;22;20378;-91
2021/05/03 06:19:49;;;;;;;5.22;3.80;;;16.20;75.40;;;;;;6247094;23;20431;-90
2021/05/03 06:22:15;;;;;;;4.95;3.55;;;16.20;76.00;;;;;;6246566;22;19997;-89
2021/05/03 06:24:42;;;;;;;4.93;3.88;;;16.10;76.90;;;;;;6247205;22;20004;-90
2021/05/03 06:27:07;;;;;;;5.57;4.60;;;16.10;77.30;;;;;;6246500;23;20004;-90
2021/05/03 06:29:33;;;;;;;5.05;4.28;;;16.10;77.30;;;;;;6245176;23;20005;-91
2021/05/03 06:31:59;;;;;;;5.18;4.45;;;16.10;77.70;;;;;;6243259;23;20324;-90
2021/05/03 06:34:30;;;;;;;5.05;3.95;;;16.10;78.10;;;;;;6244310;22;20008;-90
2021/05/03 06:36:56;;;;;;;5.80;4.25;;;16.20;78.20;;;;;;6245462;22;20012;-91
2021/05/03 06:39:22;;;;;;;5.72;3.83;;;16.20;78.20;;;;;;6245190;22;20000;-90
2021/05/03 06:41:49;;;;;;;6.88;4.15;;;16.20;78.20;;;;;;6244679;22;20070;-90
2021/05/03 06:44:15;;;;;;;4.32;3.63;;;16.20;78.20;;;;;;6244566;22;20072;-91
2021/05/03 06:46:41;;;;;;;5.90;4.97;;;16.10;78.40;;;;;;6245197;22;20365;-91
2021/05/03 06:49:07;;;;;;;4.55;4.05;;;16.20;78.70;;;;;;6246499;22;20086;-90
2021/05/03 06:51:32;;;;;;;6.88;5.10;;;16.20;78.90;;;;;;6246651;23;20090;-90
2021/05/03 06:53:58;;;;;;;6.10;4.95;;;16.20;79.00;;;;;;6248219;22;20020;-90
2021/05/03 06:56:24;;;;;;;7.63;4.90;;;16.30;79.00;;;;;;6247727;22;19996;-90
2021/05/03 06:58:51;;;;;;;6.00;4.72;;;16.30;79.20;;;;;;6246033;23;20411;-91
2021/05/03 07:01:17;;;;;;;5.30;4.53;;;16.40;79.00;;;;;;6245769;23;20393;-91
2021/05/03 07:03:43;;;;;;;6.05;4.07;;;16.40;77.80;;;;;;6247118;22;19999;-89
2021/05/03 07:06:10;;;;;;;5.32;4.60;;;16.50;77.40;;;;;;6245918;22;20011;-90
2021/05/03 07:08:36;;;;;;;5.38;4.07;;;16.50;76.70;;;;;;6246109;22;20008;-92
2021/05/03 07:11:07;;;;;;;4.15;3.75;;;16.50;76.40;;;;;;6246254;23;20447;-91
2021/05/03 07:13:32;;;;;;;3.60;3.28;;;16.50;74.40;;;;;;6246081;23;20007;-90
2021/05/03 07:15:58;;;;;;;4.60;3.53;;;16.50;74.20;;;;;;6247662;22;19996;-90
2021/05/03 07:18:24;;;;;;;3.40;3.10;;;16.60;73.40;;;;;;6245963;22;20040;-90
2021/05/03 07:20:49;;;;;;;4.22;3.22;;;16.50;71.70;;;;;;6246878;22;20424;-90
2021/05/03 07:23:15;;;;;;;3.78;3.10;;;16.60;71.10;;;;;;6246660;22;20458;-90
2021/05/03 07:25:41;;;;;;;3.40;3.10;;;16.60;71.50;;;;;;6245966;22;20372;-91
2021/05/03 07:28:06;;;;;;;3.13;2.72;;;16.70;70.90;;;;;;6220629;23;20324;-90
2021/05/03 07:30:32;;;;;;;2.75;2.55;;;16.70;70.30;;;;;;6246072;22;20000;-91
2021/05/03 07:32:58;;;;;;;3.47;2.90;;;16.80;69.60;;;;;;6245998;23;20481;-91
2021/05/03 07:35:23;;;;;;;3.00;2.70;;;16.80;69.50;;;;;;6220811;23;20036;-91
2021/05/03 07:37:49;;;;;;;2.75;2.45;;;17.00;69.30;;;;;;6245911;22;20336;-91
2021/05/03 07:40:15;;;;;;;2.72;2.50;;;17.10;68.70;;;;;;6246557;23;20000;-89
2021/05/03 07:42:41;;;;;;;4.18;3.38;;;17.20;66.70;;;;;;6246211;22;20086;-90
2021/05/03 07:45:07;;;;;;;2.95;2.63;;;17.20;63.90;;;;;;6220841;23;20070;-90
2021/05/03 07:47:33;;;;;;;2.58;2.38;;;17.10;64.00;;;;;;6247222;22;19996;-91
2021/05/03 07:49:59;;;;;;;2.90;2.58;;;17.10;64.30;;;;;;6247113;22;20000;-91
2021/05/03 07:52:25;;;;;;;3.97;2.30;;;17.10;64.10;;;;;;6246126;22;20007;-91
2021/05/03 07:54:50;;;;;;;3.08;2.67;;;17.10;64.50;;;;;;6220819;23;20442;-91
2021/05/03 07:57:16;;;;;;;2.42;2.22;;;17.20;64.10;;;;;;6245096;23;20040;-91
2021/05/03 07:59:42;;;;;;;2.40;2.00;;;17.20;62.70;;;;;;6245490;22;20091;-90
2021/05/03 08:02:08;;;;;;;3.33;2.67;;;17.10;62.90;;;;;;6246024;22;20061;-91
2021/05/03 08:04:34;;;;;;;2.78;2.42;;;17.10;63.20;;;;;;6247356;23;19996;-91
2021/05/03 08:07:00;;;;;;;2.35;2.08;;;17.10;62.80;;;;;;6247558;22;20007;-90
2021/05/03 08:09:27;;;;;;;2.20;2.00;;;17.20;63.70;;;;;;6245597;23;20008;-92
2021/05/03 08:11:53;;;;;;;3.05;2.65;;;17.40;64.00;;;;;;6247375;22;20004;-91
2021/05/03 08:14:20;;;;;;;2.88;2.63;;;17.50;59.60;;;;;;6245840;23;20011;-91
2021/05/03 08:16:53;;;;;;;2.67;2.38;;;17.50;59.60;;;;;;6246067;22;20019;-91
2021/05/03 08:19:19;;;;;;;2.97;2.40;;;17.50;59.50;;;;;;6246490;23;20031;-91
2021/05/03 08:21:45;;;;;;;5.63;2.35;;;17.50;59.10;;;;;;6246940;22;20000;-92
2021/05/03 08:24:11;;;;;;;2.53;2.33;;;17.50;59.10;;;;;;6245747;23;20004;-90
2021/05/03 08:26:37;;;;;;;3.67;2.53;;;17.40;59.20;;;;;;6245717;22;20007;-91
2021/05/03 08:29:03;;;;;;;3.30;2.33;;;17.40;58.20;;;;;;6245506;22;20004;-91
2021/05/03 08:31:29;;;;;;;2.30;2.10;;;17.40;57.90;;;;;;6245845;23;20481;-91
2021/05/03 08:33:55;;;;;;;3.55;1.88;;;17.40;57.70;;;;;;6245866;22;20008;-91
2021/05/03 08:36:20;;;;;;;2.70;2.10;;;17.50;57.20;;;;;;6245702;22;20323;-90
2021/05/03 08:38:46;;;;;;;1.98;1.88;;;17.60;57.30;;;;;;6245385;23;20094;-91
2021/05/03 08:41:16;;;;;;;2.33;2.10;;;17.80;56.60;;;;;;6245261;23;20011;-93
2021/05/03 08:43:43;;;;;;;1.95;1.83;;;18.00;57.10;;;;;;6247206;22;20071;-91
2021/05/03 08:46:14;;;;;;;2.33;1.95;;;18.20;57.60;;;;;;6245873;23;20331;-90
2021/05/03 08:49:06;;;;;;;3.08;2.28;;;18.30;56.30;;;;;;6247104;23;20001;-90
2021/05/03 08:54:07;;;;;;;2.40;2.03;;;18.50;55.70;;;;;;6247307;22;20020;-91
2021/05/03 08:56:33;;;;;;;2.65;2.20;;;18.60;56.50;;;;;;6245501;23;20022;-92
2021/05/03 08:58:59;;;;;;;3.03;2.40;;;18.70;56.00;;;;;;6246033;23;20000;-90
2021/05/03 09:01:25;;;;;;;2.10;2.00;;;18.70;55.80;;;;;;6245684;22;20008;-90
2021/05/03 09:03:52;;;;;;;2.22;2.03;;;18.70;56.30;;;;;;6246033;23;19996;-91
2021/05/03 09:06:18;;;;;;;2.10;1.90;;;18.70;55.80;;;;;;6247020;22;20289;-90
2021/05/03 09:08:45;;;;;;;2.33;2.13;;;18.70;56.20;;;;;;6246573;23;20092;-90
2021/05/03 09:11:15;;;;;;;4.78;2.03;;;18.60;55.40;;;;;;6248874;22;19996;-91
2021/05/03 09:13:42;;;;;;;2.58;2.38;;;18.50;55.20;;;;;;6247332;22;20014;-90
2021/05/03 09:16:21;;;;;;;2.30;2.10;;;18.40;55.60;;;;;;6247790;23;20000;-89
2021/05/03 09:18:49;;;;;;;2.55;2.35;;;18.30;55.00;;;;;;6247627;23;20012;-90
2021/05/03 09:21:23;;;;;;;3.20;2.83;;;18.30;56.40;;;;;;6247262;22;20024;-90
2021/05/03 09:24:10;;;;;;;3.25;2.95;;;18.40;56.60;;;;;;6248956;22;19996;-91
2021/05/03 09:26:45;;;;;;;2.40;2.20;;;18.50;54.80;;;;;;6247420;23;20008;-91
2021/05/03 09:29:29;;;;;;;2.72;2.53;;;18.60;55.80;;;;;;6248260;23;20000;-91
2021/05/03 09:32:00;;;;;;;2.45;2.25;;;18.70;55.80;;;;;;6221981;23;19996;-90
2021/05/03 09:34:37;;;;;;;2.55;2.35;;;18.70;56.10;;;;;;6247378;23;20000;-91
2021/05/03 09:37:19;;;;;;;3.33;2.50;;;19.00;55.80;;;;;;6247051;23;20450;-91
2021/05/03 09:39:57;;;;;;;2.30;2.10;;;19.10;54.40;;;;;;6248650;23;20036;-91
2021/05/03 09:42:24;;;;;;;2.88;2.13;;;19.20;55.00;;;;;;6247521;23;20028;-90
2021/05/03 09:45:10;;;;;;;2.70;2.50;;;19.40;54.50;;;;;;6248880;22;20003;-91
2021/05/03 09:47:39;;;;;;;3.38;2.15;;;19.50;52.80;;;;;;6247424;23;20000;-91
2021/05/03 09:50:14;;;;;;;2.88;2.53;;;19.60;54.10;;;;;;6247359;23;20000;-89
2021/05/03 09:53:00;;;;;;;2.30;2.10;;;19.50;53.10;;;;;;6246676;23;20013;-91
2021/05/03 09:55:53;;;;;;;3.90;2.75;;;19.50;53.50;;;;;;6249010;23;20005;-90
2021/05/03 09:58:23;;;;;;;2.47;2.28;;;19.40;52.70;;;;;;6247306;23;20096;-90
2021/05/03 10:00:56;;;;;;;2.17;2.05;;;19.40;53.30;;;;;;6247078;23;20054;-89
2021/05/03 10:03:43;;;;;;;;;;;19.40;52.40;;;;;;6247754;23;20015;-90
2021/05/03 10:06:10;;;;;;;2.83;2.47;;;19.20;52.30;;;;;;6248535;22;19907;-90
2021/05/03 10:08:37;;;;;;;2.85;2.63;;;19.10;53.90;;;;;;6246889;23;20028;-90
2021/05/03 10:11:12;;;;;;;2.85;2.53;;;19.10;53.80;;;;;;6246368;22;20008;-91
2021/05/03 10:13:39;;;;;;;2.70;2.50;;;19.00;54.20;;;;;;6248330;23;20134;-90
2021/05/03 10:16:09;;;;;;;2.70;2.50;;;18.90;54.00;;;;;;6248632;22;20123;-91
2021/05/03 10:18:40;;;;;;;2.42;2.22;;;18.80;54.50;;;;;;6248132;22;20018;-89
2021/05/03 10:21:13;;;;;;;3.03;2.78;;;18.80;55.20;;;;;;6248436;22;20012;-90
2021/05/03 10:23:44;;;;;;;4.35;2.42;;;18.70;54.30;;;;;;6248040;22;20443;-90
2021/05/03 10:26:10;;;;;;;2.60;2.40;;;18.60;54.60;;;;;;6247163;23;20362;-89
2021/05/03 10:29:03;;;;;;;2.53;2.20;;;18.50;55.20;;;;;;6246576;22;20069;-90
2021/05/03 10:32:02;;;;;;;2.40;2.20;;;18.40;55.70;;;;;;6241098;22;20347;-90
2021/05/03 10:34:40;;;;;;;2.90;2.70;;;18.30;55.20;;;;;;6248148;22;20071;-90
2021/05/03 10:37:34;;;;;;;2.30;2.10;;;18.20;56.10;;;;;;6246585;22;20016;-90
2021/05/03 10:40:18;;;;;;;3.00;2.67;;;17.90;55.80;;;;;;6246341;22;20012;-90
2021/05/03 10:43:22;;;;;;;2.50;2.30;;;17.60;55.80;;;;;;6246815;22;20005;-91
2021/05/03 10:48:48;;;;;;;2.63;2.42;;;17.10;57.00;;;;;;6227935;22;20009;-89
2021/05/03 10:56:54;;;;;;;3.25;2.95;;;16.30;59.90;;;;;;6234487;22;20012;-90
2021/05/03 10:59:20;;;;;;;3.42;2.70;;;16.10;60.00;;;;;;6246252;23;20011;-90
2021/05/03 11:01:55;;;;;;;3.58;3.03;;;16.00;60.70;;;;;;6247647;22;20414;-90
2021/05/03 11:04:25;;;;;;;3.95;3.00;;;15.90;60.90;;;;;;6246730;23;20024;-90
2021/05/03 11:06:50;;;;;;;5.05;3.40;;;15.60;61.20;;;;;;6246207;22;20327;-90
2021/05/03 11:09:27;;;;;;;3.05;2.78;;;15.40;61.60;;;;;;6247786;23;19996;-90
2021/05/03 11:11:54;;;;;;;3.65;2.83;;;15.20;62.10;;;;;;6245638;22;20004;-90
2021/05/03 11:14:21;;;;;;;3.35;3.05;;;15.00;62.70;;;;;;6246269;23;20324;-89
2021/05/03 11:16:53;;;;;;;2.85;2.65;;;14.80;63.00;;;;;;6245848;22;20027;-91
2021/05/03 11:19:51;;;;;;;3.40;3.10;;;14.70;63.30;;;;;;6247829;22;20022;-90
2021/05/03 11:22:21;;;;;;;3.25;2.60;;;14.60;64.00;;;;;;6247389;23;20053;-89
2021/05/03 11:33:02;;;;;;;3.38;3.08;;;14.40;66.10;;;;;;6257822;22;20004;-90
2021/05/03 11:35:37;;;;;;;2.85;2.40;;;14.30;65.60;;;;;;6248719;23;19999;-89
2021/05/03 11:46:31;;;;;;;2.15;1.90;;;14.20;66.00;;;;;;6257713;22;20000;-90
2021/05/03 11:49:00;;;;;;;2.10;2.00;;;14.30;66.20;;;;;;6245857;23;20004;-89
2021/05/03 11:51:26;;;;;;;2.17;2.00;;;14.30;66.20;;;;;;6247333;22;20050;-90
2021/05/03 11:53:52;;;;;;;3.10;2.03;;;14.50;66.10;;;;;;6245320;22;20047;-90
2021/05/03 11:56:28;;;;;;;2.17;2.00;;;14.60;66.30;;;;;;6247318;22;19993;-90
2021/05/03 11:58:58;;;;;;;2.50;2.30;;;14.70;66.50;;;;;;6247186;22;20004;-90
2021/05/03 12:01:29;;;;;;;3.33;2.83;;;15.00;66.10;;;;;;6245898;23;20000;-90
2021/05/03 12:03:58;;;;;;;2.30;2.10;;;15.20;65.60;;;;;;6246479;23;20004;-90
2021/05/03 12:06:40;;;;;;;3.63;2.20;;;15.40;65.70;;;;;;6247288;22;20003;-90
2021/05/03 12:09:07;;;;;;;3.00;2.42;;;15.70;64.10;;;;;;6245835;23;20090;-91
2021/05/03 12:11:34;;;;;;;3.05;2.75;;;16.00;64.50;;;;;;6247814;22;20007;-90
2021/05/03 12:13:59;;;;;;;2.80;2.55;;;16.20;63.20;;;;;;6245680;23;20014;-90
2021/05/03 12:16:39;;;;;;;3.10;2.58;;;16.50;62.90;;;;;;6245550;22;20082;-90
2021/05/03 12:19:11;;;;;;;2.75;2.55;;;16.70;61.90;;;;;;6245283;23;20004;-91
2021/05/03 12:21:37;;;;;;;3.47;3.00;;;16.90;62.00;;;;;;6245495;23;20082;-91
2021/05/03 12:24:21;;;;;;;3.33;3.00;;;17.30;60.70;;;;;;6245666;23;20016;-91
2021/05/03 12:26:57;;;;;;;2.80;2.60;;;17.50;58.50;;;;;;6247073;23;20106;-90
2021/05/03 12:29:25;;;;;;;2.80;2.60;;;17.50;57.90;;;;;;6245822;22;20007;-90
2021/05/03 12:31:52;;;;;;;2.42;2.22;;;17.30;58.00;;;;;;6247279;22;20003;-89
2021/05/03 12:34:23;;;;;;;3.30;2.25;;;17.10;58.00;;;;;;6245569;23;20008;-90
2021/05/03 12:37:13;;;;;;;2.65;2.30;;;17.10;58.70;;;;;;6247070;22;19996;-90
2021/05/03 12:39:54;;;;;;;2.70;2.50;;;17.20;57.40;;;;;;6245799;23;20000;-91
2021/05/03 12:42:20;;;;;;;2.33;2.13;;;17.40;57.20;;;;;;6246082;23;20420;-91
2021/05/03 12:44:52;;;;;;;2.08;1.98;;;17.70;57.40;;;;;;6247575;23;20005;-91
2021/05/03 12:52:39;;;;;;;3.17;2.30;;;19.20;55.80;;;;;;6257143;22;20023;-90
2021/05/03 12:55:11;;;;;;;1.90;1.80;;;19.60;53.80;;;;;;6253521;22;20319;-91
2021/05/03 13:00:44;;;;;;;1.92;1.73;;;20.20;51.80;;;;;;6253816;23;20450;-91
2021/05/03 13:03:14;;;;;;;2.10;1.80;;;20.60;50.70;;;;;;6251794;23;20059;-90
2021/05/03 13:06:04;;;;;;;2.15;2.05;;;20.80;50.20;;;;;;6253087;22;20078;-91
2021/05/03 13:12:37;;;;;;;;;;;20.90;48.20;;;;;;6263586;23;20000;-90
2021/05/03 13:29:20;;;;;;;1.50;1.40;;;20.50;42.00;;;;;;6228915;22;20019;-92
2021/05/03 13:31:47;;;;;;;1.98;1.67;;;20.80;42.30;;;;;;6249223;22;20002;-91
2021/05/03 13:34:17;;;;;;;1.80;1.70;;;20.90;42.40;;;;;;6249605;22;20000;-90
2021/05/03 13:36:46;;;;;;;1.50;1.40;;;21.20;41.50;;;;;;6248448;22;19996;-91
2021/05/03 13:39:12;;;;;;;1.45;1.35;;;21.40;42.50;;;;;;6248679;22;19996;-91
2021/05/03 13:41:40;;;;;;;2.35;1.70;;;21.80;43.20;;;;;;6247231;22;20443;-91
2021/05/03 13:44:08;;;;;;;1.80;1.60;;;22.10;41.30;;;;;;6247032;22;20359;-90
2021/05/03 13:46:34;;;;;;;2.03;1.80;;;22.50;42.20;;;;;;6249262;22;20061;-90
2021/05/03 13:49:01;;;;;;;1.60;1.50;;;22.80;41.30;;;;;;6247871;22;20431;-90
2021/05/03 13:51:28;;;;;;;1.70;1.50;;;22.90;39.20;;;;;;6247034;23;20005;-91
2021/05/03 13:53:55;;;;;;;2.45;1.50;;;22.80;38.20;;;;;;6221724;23;20025;-90
2021/05/03 13:56:20;;;;;;;1.70;1.60;;;22.60;38.40;;;;;;6246446;22;20011;-90
2021/05/03 13:58:46;;;;;;;1.80;1.70;;;22.60;38.60;;;;;;6246956;22;20012;-91
2021/05/03 14:01:13;;;;;;;1.85;1.58;;;22.60;38.10;;;;;;6247048;23;20000;-90